Celestyal Crystal — 9HA2978 — position and weather

sailwx.info

Track history (hours):
 
Tides and Currents Weather Stations Pressure Air Temp Water Temp Dewpoint Dewpoint Depression Visibility Wind Speed Wind Dir Waves Ship Positions

Celestyal Crystal

Last reported at 2015-Aug-03 23:33 UTC. Time now 2015-Aug-04 21:58 UTC.
Position N 37°48' E 025°38'.

Length 162 m; draft 6.1 m.

Type: Passenger vessel. MMSI: 229001000.

Date/timePositionNaut miles runAvg speedWind from/ knotsBaromVisibWave heightAir tempDewpointWater temp
2015-Aug-03 23:33N 37°48' E 025°38'1212.4
2015-Aug-03 22:34N 37°39' E 025°27'1312.6
2015-Aug-03 21:34N 37°31' E 025°15'1313.2
2015-Aug-03 20:34N 37°27' E 024°60'2 2.3
2015-Aug-03 19:33N 37°26' E 024°57'0 0.0
2015-Aug-03 18:33N 37°26' E 024°57'0 0.0
2015-Aug-03 17:33N 37°27' E 024°57'0 0.0
2015-Aug-03 16:33N 37°27' E 024°57'0 0.0
2015-Aug-03 15:33N 37°27' E 024°57'6 5.1
2015-Aug-03 14:28N 37°31' E 024°54'33 0.9
2015-Aug-02 03:11N 36°58' E 024°52'913.5
2015-Aug-02 02:32N 37°04' E 025°00'1313.6
2015-Aug-02 01:33N 37°11' E 025°14'1616.4
2015-Aug-02 00:33N 37°17' E 025°33'1616.4
2015-Aug-01 23:33N 37°25' E 025°52'52 2.4
2015-Aug-01 02:04N 37°51' E 026°48'713.8
2015-Aug-01 01:32N 37°50' E 026°39'1414.1
2015-Aug-01 00:33N 37°46' E 026°22'1514.7
2015-Jul-31 23:32N 37°42' E 026°04'1714.9
2015-Jul-31 22:23N 37°37' E 025°43'1315.2
2015-Jul-31 21:33N 37°33' E 025°28'9 8.5
2015-Jul-31 20:32N 37°28' E 025°20'0 0.0
2015-Jul-31 19:26N 37°28' E 025°20'0 0.0
2015-Jul-31 18:32N 37°28' E 025°20'0 0.0
2015-Jul-31 17:32N 37°28' E 025°20'0 0.0
2015-Jul-31 16:32N 37°28' E 025°20'0 0.0
2015-Jul-31 15:32N 37°28' E 025°20'0 0.0
2015-Jul-31 14:31N 37°28' E 025°20'1111.1
2015-Jul-31 13:33N 37°30' E 025°06'5116.7
2015-Jul-31 10:30N 37°35' E 024°03'1515.6
2015-Jul-31 09:33N 37°40' E 023°45'1514.7
2015-Jul-31 08:34N 37°53' E 023°37'4 3.4
2015-Jul-31 07:29N 37°56' E 023°38'0 0.0
2015-Jul-31 06:32N 37°56' E 023°38'0 0.0
2015-Jul-31 05:29N 37°56' E 023°38'0 0.0
2015-Jul-31 04:29N 37°56' E 023°38'0 0.0
2015-Jul-31 03:32N 37°56' E 023°38'0 0.0
2015-Jul-31 02:32N 37°56' E 023°38'1 1.4
2015-Jul-31 01:33N 37°56' E 023°37'1616.2
2015-Jul-31 00:33N 37°41' E 023°45'1716.9
2015-Jul-30 23:34N 37°29' E 024°01'3917.1
2015-Jul-30 21:16N 37°07' E 024°41'1417.6
2015-Jul-30 20:27N 36°58' E 024°54'1617.2
2015-Jul-30 19:31N 36°47' E 025°09'1617.0
2015-Jul-30 18:33N 36°32' E 025°19'9 8.9
2015-Jul-30 17:32N 36°25' E 025°25'0 0.1
2015-Jul-30 16:32N 36°25' E 025°25'1 0.9
2015-Jul-30 15:33N 36°24' E 025°25'0 0.4
2015-Jul-30 14:33N 36°24' E 025°25'1 0.6
2015-Jul-30 13:33N 36°25' E 025°25'7 6.9
2015-Jul-30 12:33N 36°30' E 025°20'7 0.7
2015-Jul-30 02:32N 36°38' E 025°22'8 8.2
2015-Jul-30 01:33N 36°39' E 025°32'8 8.0
2015-Jul-30 00:33N 36°40' E 025°41'8 8.0
2015-Jul-29 23:33N 36°42' E 025°51'8 7.7
2015-Jul-29 22:33N 36°43' E 026°01'8 7.7
2015-Jul-29 21:33N 36°45' E 026°10'8 8.1
2015-Jul-29 20:33N 36°47' E 026°20'8 8.1
2015-Jul-29 19:33N 36°48' E 026°30'8 8.3
2015-Jul-29 18:33N 36°50' E 026°40'8 8.0
2015-Jul-29 17:33N 36°51' E 026°50'9 8.9
2015-Jul-29 16:33N 36°53' E 027°01'9 9.3
2015-Jul-29 15:33N 36°55' E 027°12'4 0.4
2015-Jul-29 04:16N 36°54' E 027°17'0 0.1
2015-Jul-29 03:32N 36°54' E 027°17'1411.3
2015-Jul-29 02:16N 37°03' E 027°03'912.1
2015-Jul-29 01:33N 37°10' E 026°58'3912.8
2015-Jul-28 22:31N 37°43' E 026°31'33 1.6
2015-Jul-28 02:06N 38°09' E 026°05'3011.9
2015-Jul-27 23:33N 37°47' E 025°38'1312.5
2015-Jul-27 22:34N 37°39' E 025°26'1212.2
2015-Jul-27 21:33N 37°31' E 025°15'1212.1
2015-Jul-27 20:33N 37°27' E 025°00'3 2.8
2015-Jul-27 19:31N 37°26' E 024°57'0 0.0
2015-Jul-27 18:31N 37°26' E 024°57'0 0.0
2015-Jul-27 17:31N 37°26' E 024°57'0 0.0
2015-Jul-27 16:31N 37°26' E 024°57'0 0.0
2015-Jul-27 15:33N 37°26' E 024°57'2 1.9
2015-Jul-27 14:34N 37°28' E 024°58'43 3.3
2015-Jul-27 01:32N 37°37' E 024°05'8 8.0
2015-Jul-27 00:29N 37°29' E 024°08'6 6.3
2015-Jul-26 23:33N 37°23' E 024°09'7 6.7
2015-Jul-26 22:33N 37°17' E 024°12'7 6.6
2015-Jul-26 21:33N 37°11' E 024°14'7 7.0
2015-Jul-26 20:33N 37°04' E 024°16'7 7.1
2015-Jul-26 19:33N 36°57' E 024°19'7 7.1
2015-Jul-26 18:33N 36°50' E 024°21'8 0.6
2015-Jul-26 05:32N 36°43' E 024°27'6 6.4
2015-Jul-26 04:34N 36°49' E 024°26'1414.1
2015-Jul-26 03:33N 36°52' E 024°43'1514.8
2015-Jul-26 02:33N 37°02' E 024°57'1514.7
2015-Jul-26 01:34N 37°11' E 025°12'1515.1
2015-Jul-26 00:34N 37°17' E 025°30'1515.3
2015-Jul-25 23:34N 37°24' E 025°47'1615.9
2015-Jul-25 22:33N 37°30' E 026°05'1615.7
2015-Jul-25 21:33N 37°38' E 026°22'2115.4
2015-Jul-25 20:12N 37°50' E 026°44'4 0.2
2015-Jul-25 01:33N 37°50' E 026°39'1514.5
2015-Jul-25 00:33N 37°45' E 026°21'  
Track history (hours):
 
Tides and Currents Weather Stations Pressure Air Temp Water Temp Dewpoint Dewpoint Depression Visibility Wind Speed Wind Dir Waves Ship Positions

Celestyal Crystal

Last reported at 2015-Aug-03 23:33 UTC. Time now 2015-Aug-04 21:58 UTC.
Position N 37°48' E 025°38'.

Length 162 m; draft 6.1 m.

Type: Passenger vessel. MMSI: 229001000.

Date/timePositionNaut miles runAvg speedWind from/ knotsBaromVisibWave heightAir tempDewpointWater temp
2015-Aug-03 23:33N 37°48' E 025°38'1212.4
2015-Aug-03 22:34N 37°39' E 025°27'1312.6
2015-Aug-03 21:34N 37°31' E 025°15'1313.2
2015-Aug-03 20:34N 37°27' E 024°60'2 2.3
2015-Aug-03 19:33N 37°26' E 024°57'0 0.0
2015-Aug-03 18:33N 37°26' E 024°57'0 0.0
2015-Aug-03 17:33N 37°27' E 024°57'0 0.0
2015-Aug-03 16:33N 37°27' E 024°57'0 0.0
2015-Aug-03 15:33N 37°27' E 024°57'6 5.1
2015-Aug-03 14:28N 37°31' E 024°54'33 0.9
2015-Aug-02 03:11N 36°58' E 024°52'913.5
2015-Aug-02 02:32N 37°04' E 025°00'1313.6
2015-Aug-02 01:33N 37°11' E 025°14'1616.4
2015-Aug-02 00:33N 37°17' E 025°33'1616.4
2015-Aug-01 23:33N 37°25' E 025°52'52 2.4
2015-Aug-01 02:04N 37°51' E 026°48'713.8
2015-Aug-01 01:32N 37°50' E 026°39'1414.1
2015-Aug-01 00:33N 37°46' E 026°22'1514.7
2015-Jul-31 23:32N 37°42' E 026°04'1714.9
2015-Jul-31 22:23N 37°37' E 025°43'1315.2
2015-Jul-31 21:33N 37°33' E 025°28'9 8.5
2015-Jul-31 20:32N 37°28' E 025°20'0 0.0
2015-Jul-31 19:26N 37°28' E 025°20'0 0.0
2015-Jul-31 18:32N 37°28' E 025°20'0 0.0
2015-Jul-31 17:32N 37°28' E 025°20'0 0.0
2015-Jul-31 16:32N 37°28' E 025°20'0 0.0
2015-Jul-31 15:32N 37°28' E 025°20'0 0.0
2015-Jul-31 14:31N 37°28' E 025°20'1111.1
2015-Jul-31 13:33N 37°30' E 025°06'5116.7
2015-Jul-31 10:30N 37°35' E 024°03'1515.6
2015-Jul-31 09:33N 37°40' E 023°45'1514.7
2015-Jul-31 08:34N 37°53' E 023°37'4 3.4
2015-Jul-31 07:29N 37°56' E 023°38'0 0.0
2015-Jul-31 06:32N 37°56' E 023°38'0 0.0
2015-Jul-31 05:29N 37°56' E 023°38'0 0.0
2015-Jul-31 04:29N 37°56' E 023°38'0 0.0
2015-Jul-31 03:32N 37°56' E 023°38'0 0.0
2015-Jul-31 02:32N 37°56' E 023°38'1 1.4
2015-Jul-31 01:33N 37°56' E 023°37'1616.2
2015-Jul-31 00:33N 37°41' E 023°45'1716.9
2015-Jul-30 23:34N 37°29' E 024°01'3917.1
2015-Jul-30 21:16N 37°07' E 024°41'1417.6
2015-Jul-30 20:27N 36°58' E 024°54'1617.2
2015-Jul-30 19:31N 36°47' E 025°09'1617.0
2015-Jul-30 18:33N 36°32' E 025°19'9 8.9
2015-Jul-30 17:32N 36°25' E 025°25'0 0.1
2015-Jul-30 16:32N 36°25' E 025°25'1 0.9
2015-Jul-30 15:33N 36°24' E 025°25'0 0.4
2015-Jul-30 14:33N 36°24' E 025°25'1 0.6
2015-Jul-30 13:33N 36°25' E 025°25'7 6.9
2015-Jul-30 12:33N 36°30' E 025°20'7 0.7
2015-Jul-30 02:32N 36°38' E 025°22'8 8.2
2015-Jul-30 01:33N 36°39' E 025°32'8 8.0
2015-Jul-30 00:33N 36°40' E 025°41'8 8.0
2015-Jul-29 23:33N 36°42' E 025°51'8 7.7
2015-Jul-29 22:33N 36°43' E 026°01'8 7.7
2015-Jul-29 21:33N 36°45' E 026°10'8 8.1
2015-Jul-29 20:33N 36°47' E 026°20'8 8.1
2015-Jul-29 19:33N 36°48' E 026°30'8 8.3
2015-Jul-29 18:33N 36°50' E 026°40'8 8.0
2015-Jul-29 17:33N 36°51' E 026°50'9 8.9
2015-Jul-29 16:33N 36°53' E 027°01'9 9.3
2015-Jul-29 15:33N 36°55' E 027°12'4 0.4
2015-Jul-29 04:16N 36°54' E 027°17'0 0.1
2015-Jul-29 03:32N 36°54' E 027°17'1411.3
2015-Jul-29 02:16N 37°03' E 027°03'912.1
2015-Jul-29 01:33N 37°10' E 026°58'3912.8
2015-Jul-28 22:31N 37°43' E 026°31'33 1.6
2015-Jul-28 02:06N 38°09' E 026°05'3011.9
2015-Jul-27 23:33N 37°47' E 025°38'1312.5
2015-Jul-27 22:34N 37°39' E 025°26'1212.2
2015-Jul-27 21:33N 37°31' E 025°15'1212.1
2015-Jul-27 20:33N 37°27' E 025°00'3 2.8
2015-Jul-27 19:31N 37°26' E 024°57'0 0.0
2015-Jul-27 18:31N 37°26' E 024°57'0 0.0
2015-Jul-27 17:31N 37°26' E 024°57'0 0.0
2015-Jul-27 16:31N 37°26' E 024°57'0 0.0
2015-Jul-27 15:33N 37°26' E 024°57'2 1.9
2015-Jul-27 14:34N 37°28' E 024°58'43 3.3
2015-Jul-27 01:32N 37°37' E 024°05'8 8.0
2015-Jul-27 00:29N 37°29' E 024°08'6 6.3
2015-Jul-26 23:33N 37°23' E 024°09'7 6.7
2015-Jul-26 22:33N 37°17' E 024°12'7 6.6
2015-Jul-26 21:33N 37°11' E 024°14'7 7.0
2015-Jul-26 20:33N 37°04' E 024°16'7 7.1
2015-Jul-26 19:33N 36°57' E 024°19'7 7.1
2015-Jul-26 18:33N 36°50' E 024°21'8 0.6
2015-Jul-26 05:32N 36°43' E 024°27'6 6.4
2015-Jul-26 04:34N 36°49' E 024°26'1414.1
2015-Jul-26 03:33N 36°52' E 024°43'1514.8
2015-Jul-26 02:33N 37°02' E 024°57'1514.7
2015-Jul-26 01:34N 37°11' E 025°12'1515.1
2015-Jul-26 00:34N 37°17' E 025°30'1515.3
2015-Jul-25 23:34N 37°24' E 025°47'1615.9
2015-Jul-25 22:33N 37°30' E 026°05'1615.7
2015-Jul-25 21:33N 37°38' E 026°22'2115.4
2015-Jul-25 20:12N 37°50' E 026°44'4 0.2
2015-Jul-25 01:33N 37°50' E 026°39'1514.5
2015-Jul-25 00:33N 37°45' E 026°21'  

Dump ship's entire track history